Time;durP1;ratioP1;P1;durP2;ratioP2;P2;SDS_P1;SDS_P2;PMS_P1;PMS_P2;Temp;Humidity;BMP_temperature;BMP_pressure;BME280_temperature;BME280_humidity;BME280_pressure;Samples;Min_cycle;Max_cycle;Signal;HPM_P1;HPM_P2
2022/08/07 00:00:34;;;;;;;0.25;0.20;;;14.90;99.90;;;;;;5033161;28;20882;-66
2022/08/07 00:03:00;;;;;;;0.00;0.00;;;14.90;99.90;;;;;;5031375;28;20053;-65
2022/08/07 00:05:27;;;;;;;0.17;0.17;;;15.00;99.90;;;;;;5029749;28;20053;-65
2022/08/07 00:07:54;;;;;;;0.30;0.30;;;14.90;99.90;;;;;;5029701;28;20444;-65
2022/08/07 00:10:22;;;;;;;0.10;0.10;;;14.90;99.90;;;;;;5029948;28;20044;-65
2022/08/07 00:12:48;;;;;;;0.65;0.38;;;14.90;99.90;;;;;;5037847;28;20053;-65
2022/08/07 00:15:14;;;;;;;0.30;0.30;;;14.90;99.90;;;;;;5030796;28;20084;-66
2022/08/07 00:17:40;;;;;;;0.30;0.30;;;14.90;99.90;;;;;;5046079;28;20563;-65
2022/08/07 00:20:06;;;;;;;0.10;0.10;;;14.90;99.90;;;;;;5031327;28;20068;-66
2022/08/07 00:22:31;;;;;;;0.20;0.20;;;14.80;99.90;;;;;;5045361;28;20064;-65
2022/08/07 00:24:57;;;;;;;0.20;0.20;;;14.80;99.90;;;;;;5030715;28;20087;-66
2022/08/07 00:27:23;;;;;;;0.10;0.10;;;14.80;99.90;;;;;;5029921;28;20037;-65
2022/08/07 00:29:48;;;;;;;3.67;0.73;;;14.80;99.90;;;;;;5030122;28;20061;-66
2022/08/07 00:32:14;;;;;;;0.20;0.20;;;14.80;99.90;;;;;;5042991;28;20053;-65
2022/08/07 00:34:40;;;;;;;0.28;0.28;;;14.80;99.90;;;;;;5029733;28;20072;-66
2022/08/07 00:37:06;;;;;;;0.10;0.10;;;14.80;99.90;;;;;;5040072;28;20045;-65
2022/08/07 00:39:33;;;;;;;0.10;0.10;;;14.80;99.90;;;;;;5050212;28;20135;-65
2022/08/07 00:42:00;;;;;;;0.00;0.00;;;14.70;99.90;;;;;;5038139;28;20114;-66
2022/08/07 00:44:26;;;;;;;1.35;0.52;;;14.70;99.90;;;;;;5031299;28;20076;-65
2022/08/07 00:46:52;;;;;;;0.38;0.38;;;14.60;99.90;;;;;;5030199;28;20509;-65
2022/08/07 00:49:18;;;;;;;3.38;1.55;;;14.60;99.90;;;;;;5029129;28;20096;-65
2022/08/07 00:51:44;;;;;;;2.42;0.55;;;14.70;99.90;;;;;;5036828;28;20045;-65
2022/08/07 00:54:10;;;;;;;0.30;0.30;;;14.60;99.90;;;;;;5030109;28;20033;-65
2022/08/07 00:56:36;;;;;;;0.20;0.20;;;14.60;99.90;;;;;;5031191;28;20049;-65
2022/08/07 00:59:02;;;;;;;0.20;0.20;;;14.60;99.90;;;;;;5030974;28;20038;-65
2022/08/07 01:01:28;;;;;;;0.22;0.22;;;14.60;99.90;;;;;;5038887;28;20052;-66
2022/08/07 01:03:54;;;;;;;0.10;0.10;;;14.60;99.90;;;;;;5045648;28;20541;-65
2022/08/07 01:06:20;;;;;;;0.43;0.43;;;14.60;99.90;;;;;;5026653;28;20107;-66
2022/08/07 01:08:47;;;;;;;0.63;0.63;;;14.60;99.90;;;;;;5028929;28;20135;-66
2022/08/07 01:11:13;;;;;;;0.30;0.30;;;14.60;99.90;;;;;;5031292;28;20029;-65
2022/08/07 01:13:40;;;;;;;0.03;0.03;;;14.50;99.90;;;;;;5034442;28;20060;-65
2022/08/07 01:16:07;;;;;;;0.70;0.70;;;14.50;99.90;;;;;;5041384;28;20083;-65
2022/08/07 01:18:33;;;;;;;0.32;0.32;;;14.50;99.90;;;;;;5029761;28;20042;-65
2022/08/07 01:21:12;;;;;;;0.55;0.55;;;14.60;99.90;;;;;;5036496;28;20492;-65
2022/08/07 01:23:40;;;;;;;0.17;0.17;;;14.50;99.90;;;;;;5030133;28;20047;-66
2022/08/07 01:26:08;;;;;;;0.10;0.10;;;14.50;99.90;;;;;;5028107;28;20124;-65
2022/08/07 01:28:34;;;;;;;0.08;0.08;;;14.50;99.90;;;;;;5029456;28;20440;-65
2022/08/07 01:31:01;;;;;;;0.10;0.10;;;14.50;99.90;;;;;;5039084;28;20044;-65
2022/08/07 01:33:27;;;;;;;0.13;0.13;;;14.50;99.90;;;;;;5036259;28;20102;-66
2022/08/07 01:35:53;;;;;;;0.15;0.15;;;14.50;99.90;;;;;;5029012;28;20762;-66
2022/08/07 01:38:19;;;;;;;0.70;0.70;;;14.30;99.90;;;;;;5027054;28;20045;-65
2022/08/07 01:40:47;;;;;;;0.00;0.00;;;14.30;99.90;;;;;;5045042;28;20049;-65
2022/08/07 01:43:13;;;;;;;0.20;0.20;;;14.40;99.90;;;;;;5042750;28;20048;-65
2022/08/07 01:45:40;;;;;;;0.50;0.50;;;14.50;99.90;;;;;;5028657;28;20580;-66
2022/08/07 01:48:05;;;;;;;0.30;0.30;;;14.40;99.90;;;;;;5029322;28;20041;-66
2022/08/07 01:50:33;;;;;;;0.10;0.10;;;14.40;99.90;;;;;;5031604;28;20052;-65
2022/08/07 01:53:01;;;;;;;0.10;0.10;;;14.40;99.90;;;;;;5034526;28;20103;-65
2022/08/07 01:55:32;;;;;;;0.10;0.10;;;14.40;99.90;;;;;;5029253;28;20048;-65
2022/08/07 01:58:01;;;;;;;0.10;0.10;;;14.40;99.90;;;;;;5029254;28;20077;-66
2022/08/07 02:00:29;;;;;;;7.32;0.57;;;14.40;99.90;;;;;;5028689;28;20053;-65
2022/08/07 02:03:02;;;;;;;0.30;0.20;;;14.40;99.90;;;;;;5032629;28;20068;-65
2022/08/07 02:06:02;;;;;;;1.55;0.55;;;14.30;99.90;;;;;;5027342;28;20049;-65
2022/08/07 02:08:31;;;;;;;0.20;0.20;;;14.30;99.90;;;;;;5023425;28;20053;-65
2022/08/07 02:10:59;;;;;;;0.28;0.28;;;14.30;99.90;;;;;;5030923;28;20057;-65
2022/08/07 02:13:27;;;;;;;0.10;0.10;;;14.20;99.90;;;;;;5027443;28;20049;-65
2022/08/07 02:15:55;;;;;;;0.45;0.30;;;14.20;99.90;;;;;;5028973;28;20397;-65
2022/08/07 02:18:22;;;;;;;0.43;0.43;;;14.20;99.90;;;;;;5028146;28;20049;-65
2022/08/07 02:20:51;;;;;;;0.05;0.05;;;14.30;99.90;;;;;;5038084;28;20056;-66
2022/08/07 02:23:19;;;;;;;12.60;0.70;;;14.30;99.90;;;;;;5037512;28;20045;-65
2022/08/07 02:25:46;;;;;;;0.57;0.57;;;14.20;99.90;;;;;;5042946;28;20374;-65
2022/08/07 02:28:14;;;;;;;6.07;0.65;;;14.20;99.90;;;;;;5027861;28;20195;-65
2022/08/07 02:30:41;;;;;;;0.30;0.30;;;14.20;99.90;;;;;;5029177;28;20050;-65
2022/08/07 02:33:08;;;;;;;0.00;0.00;;;14.30;99.90;;;;;;5027982;28;20544;-65
2022/08/07 02:35:35;;;;;;;0.20;0.20;;;14.30;99.90;;;;;;5031065;28;20082;-66
2022/08/07 02:38:03;;;;;;;0.60;0.35;;;14.30;99.90;;;;;;5041587;28;20489;-65
2022/08/07 02:40:30;;;;;;;0.35;0.35;;;14.30;99.90;;;;;;5045480;28;20409;-65
2022/08/07 02:42:57;;;;;;;0.10;0.10;;;14.20;99.90;;;;;;5036918;28;20425;-65
2022/08/07 02:45:26;;;;;;;0.20;0.20;;;14.20;99.90;;;;;;5028309;28;20045;-66
2022/08/07 02:47:51;;;;;;;0.10;0.10;;;14.20;99.90;;;;;;5027162;28;20493;-65
2022/08/07 02:50:17;;;;;;;0.15;0.15;;;14.20;99.90;;;;;;5027101;28;20076;-65
2022/08/07 02:52:53;;;;;;;0.00;0.00;;;14.20;99.90;;;;;;5035729;28;20047;-65
2022/08/07 02:55:22;;;;;;;0.38;0.38;;;14.10;99.90;;;;;;5027463;28;20128;-65
2022/08/07 02:57:49;;;;;;;0.10;0.10;;;14.10;99.90;;;;;;5027327;28;20045;-65
2022/08/07 03:00:15;;;;;;;1.17;0.85;;;14.10;99.90;;;;;;5026818;28;20041;-66
2022/08/07 03:02:45;;;;;;;0.10;0.10;;;14.10;99.90;;;;;;5042366;28;20084;-65
2022/08/07 03:05:12;;;;;;;1.10;1.00;;;14.10;99.90;;;;;;5046676;28;20487;-65
2022/08/07 03:07:39;;;;;;;1.15;0.47;;;14.00;99.90;;;;;;5027745;28;20056;-65
2022/08/07 03:10:06;;;;;;;0.45;0.45;;;14.00;99.90;;;;;;5034479;28;20079;-65
2022/08/07 03:12:33;;;;;;;0.10;0.10;;;14.00;99.90;;;;;;5046250;28;20081;-65
2022/08/07 03:15:00;;;;;;;0.05;0.05;;;13.90;99.90;;;;;;5037861;28;20432;-66
2022/08/07 03:17:26;;;;;;;0.50;0.50;;;13.80;99.90;;;;;;5041190;28;20053;-65
2022/08/07 03:19:52;;;;;;;1.85;0.57;;;13.80;99.90;;;;;;5048334;28;20041;-65
2022/08/07 03:22:20;;;;;;;0.93;0.90;;;13.80;99.90;;;;;;5037068;28;20050;-65
2022/08/07 03:24:46;;;;;;;0.35;0.35;;;13.80;99.90;;;;;;5037910;28;20107;-65
2022/08/07 03:27:13;;;;;;;0.60;0.52;;;13.90;99.90;;;;;;5027048;28;20132;-65
2022/08/07 03:29:43;;;;;;;0.10;0.10;;;13.90;99.90;;;;;;5027345;28;20071;-65
2022/08/07 03:32:11;;;;;;;2.13;0.47;;;13.80;99.90;;;;;;5038512;28;20044;-65
2022/08/07 03:34:37;;;;;;;0.10;0.10;;;13.80;99.90;;;;;;5031718;28;20051;-65
2022/08/07 03:37:04;;;;;;;0.43;0.43;;;13.90;99.90;;;;;;5026397;28;20111;-65
2022/08/07 03:39:35;;;;;;;0.15;0.15;;;13.90;99.90;;;;;;5045408;28;20055;-65
2022/08/07 03:42:04;;;;;;;0.20;0.20;;;13.90;99.90;;;;;;5044964;28;20128;-65
2022/08/07 03:44:32;;;;;;;0.10;0.10;;;13.90;99.90;;;;;;5047074;28;20091;-65
2022/08/07 03:46:59;;;;;;;0.05;0.05;;;13.90;99.90;;;;;;5034434;28;20491;-65
2022/08/07 03:49:25;;;;;;;0.30;0.30;;;13.90;99.90;;;;;;5027406;28;20077;-65
2022/08/07 03:51:52;;;;;;;0.20;0.20;;;13.90;99.90;;;;;;5035558;28;20095;-65
2022/08/07 03:54:18;;;;;;;0.65;0.65;;;13.90;99.90;;;;;;5047692;28;20057;-65
2022/08/07 03:56:45;;;;;;;0.43;0.43;;;13.90;99.90;;;;;;5047495;28;20135;-65
2022/08/07 03:59:12;;;;;;;0.22;0.22;;;13.90;99.90;;;;;;5030991;28;20537;-65
2022/08/07 04:01:42;;;;;;;0.20;0.20;;;13.90;99.90;;;;;;5029874;28;20502;-65
2022/08/07 04:04:08;;;;;;;0.10;0.10;;;14.00;99.90;;;;;;5031178;28;20107;-65
2022/08/07 04:06:37;;;;;;;0.50;0.43;;;13.90;99.90;;;;;;5029525;28;20061;-66
2022/08/07 04:09:03;;;;;;;0.30;0.30;;;13.80;99.90;;;;;;5045076;28;20101;-65
2022/08/07 04:11:30;;;;;;;0.22;0.22;;;13.70;99.90;;;;;;5039622;28;20111;-65
2022/08/07 04:13:56;;;;;;;0.38;0.38;;;13.70;99.90;;;;;;5032716;28;20069;-66
2022/08/07 04:16:22;;;;;;;0.63;0.63;;;13.70;99.90;;;;;;5029893;28;20048;-65
2022/08/07 04:18:48;;;;;;;0.10;0.10;;;13.70;99.90;;;;;;5030137;28;20045;-65
2022/08/07 04:21:16;;;;;;;0.30;0.30;;;13.70;99.90;;;;;;5032344;28;20043;-65
2022/08/07 04:23:42;;;;;;;1.15;0.85;;;13.80;99.90;;;;;;5050862;28;20102;-65
2022/08/07 04:26:08;;;;;;;0.10;0.10;;;13.80;99.90;;;;;;5039481;28;20380;-65
2022/08/07 04:28:34;;;;;;;0.63;0.57;;;13.70;99.90;;;;;;5030711;28;20071;-65
2022/08/07 04:31:00;;;;;;;0.10;0.10;;;13.80;99.90;;;;;;5040830;28;20041;-65
2022/08/07 04:33:26;;;;;;;0.30;0.30;;;13.80;99.90;;;;;;5028556;28;20049;-65
2022/08/07 04:35:52;;;;;;;0.28;0.28;;;13.80;99.90;;;;;;5035379;28;20125;-65
2022/08/07 04:38:18;;;;;;;0.00;0.00;;;13.90;99.90;;;;;;5050518;28;20132;-65
2022/08/07 04:40:45;;;;;;;0.00;0.00;;;13.90;99.90;;;;;;5049698;28;20116;-65
2022/08/07 04:43:16;;;;;;;0.35;0.35;;;13.90;99.90;;;;;;5035571;28;20045;-65
2022/08/07 04:46:10;;;;;;;0.05;0.05;;;14.00;99.90;;;;;;5029501;28;20112;-65
2022/08/07 04:48:51;;;;;;;0.40;0.40;;;14.00;99.90;;;;;;5028791;28;20099;-65
2022/08/07 04:51:26;;;;;;;1.35;0.57;;;14.00;99.90;;;;;;5041758;28;20122;-65
2022/08/07 04:54:16;;;;;;;0.10;0.10;;;14.00;99.90;;;;;;5043763;28;20063;-65
2022/08/07 04:56:47;;;;;;;0.10;0.10;;;14.00;99.90;;;;;;5034221;28;20048;-65
2022/08/07 04:59:51;;;;;;;0.10;0.10;;;14.10;99.90;;;;;;5041933;28;20060;-66
2022/08/07 05:02:25;;;;;;;0.00;0.00;;;14.10;99.90;;;;;;5037513;28;20971;-65
2022/08/07 05:05:21;;;;;;;0.30;0.28;;;14.20;99.90;;;;;;5048940;28;20041;-65
2022/08/07 05:08:10;;;;;;;0.20;0.20;;;14.30;99.90;;;;;;5050101;28;20107;-65
2022/08/07 05:10:44;;;;;;;0.88;0.57;;;14.40;99.90;;;;;;5029677;28;20401;-65
2022/08/07 05:13:46;;;;;;;0.00;0.00;;;14.40;99.90;;;;;;5042323;28;20048;-65
2022/08/07 05:16:13;;;;;;;0.32;0.32;;;14.50;99.90;;;;;;5024962;28;20061;-66
2022/08/07 05:18:46;;;;;;;0.00;0.00;;;14.50;99.90;;;;;;5045542;28;20049;-65
2022/08/07 05:21:17;;;;;;;0.33;0.33;;;14.60;99.90;;;;;;5029698;28;20396;-66
2022/08/07 05:23:59;;;;;;;0.10;0.10;;;14.60;99.90;;;;;;5046334;28;20171;-66
2022/08/07 05:26:27;;;;;;;0.00;0.00;;;14.60;99.90;;;;;;5029337;28;20516;-65
2022/08/07 05:28:56;;;;;;;2.08;0.20;;;14.70;99.90;;;;;;5029988;28;20180;-65
2022/08/07 05:31:25;;;;;;;0.10;0.10;;;14.70;99.90;;;;;;5027998;28;20064;-66
2022/08/07 05:33:52;;;;;;;0.10;0.10;;;14.80;99.90;;;;;;5029898;28;20053;-65
2022/08/07 05:36:19;;;;;;;0.10;0.10;;;14.80;99.90;;;;;;5027594;28;20049;-66
2022/08/07 05:38:46;;;;;;;0.38;0.38;;;14.90;99.90;;;;;;5034212;28;20044;-66
2022/08/07 05:41:12;;;;;;;0.10;0.10;;;14.80;99.90;;;;;;5049134;28;20049;-66
2022/08/07 05:43:39;;;;;;;0.85;0.30;;;14.90;99.90;;;;;;5044721;28;20044;-65
2022/08/07 05:46:05;;;;;;;0.10;0.10;;;15.00;99.90;;;;;;5028880;28;20067;-65
2022/08/07 05:48:31;;;;;;;0.28;0.28;;;15.00;99.90;;;;;;5028421;28;20088;-65
2022/08/07 05:50:59;;;;;;;1.02;0.75;;;15.10;99.90;;;;;;5035142;28;20727;-65
2022/08/07 05:53:25;;;;;;;0.13;0.13;;;15.00;99.90;;;;;;5036335;28;20054;-65
2022/08/07 05:55:53;;;;;;;0.10;0.10;;;15.10;99.90;;;;;;5029155;28;20453;-65
2022/08/07 05:58:22;;;;;;;0.10;0.10;;;15.10;99.90;;;;;;5028180;28;20121;-66
2022/08/07 06:00:50;;;;;;;0.00;0.00;;;15.20;99.90;;;;;;5028908;28;20053;-66
2022/08/07 06:03:18;;;;;;;0.10;0.10;;;15.20;99.90;;;;;;5041176;28;20052;-65
2022/08/07 06:05:47;;;;;;;0.00;0.00;;;15.30;99.90;;;;;;5028909;28;20045;-66
2022/08/07 06:08:14;;;;;;;0.20;0.20;;;15.30;99.90;;;;;;5028656;28;20500;-65
2022/08/07 06:10:40;;;;;;;0.30;0.30;;;15.40;99.90;;;;;;5030205;28;20416;-65
2022/08/07 06:13:06;;;;;;;0.57;0.55;;;15.30;99.90;;;;;;5028657;28;20053;-65
2022/08/07 06:15:34;;;;;;;0.28;0.28;;;15.40;99.90;;;;;;5027819;28;20042;-65
2022/08/07 06:18:05;;;;;;;0.10;0.10;;;15.40;99.90;;;;;;5032317;28;20504;-66
2022/08/07 06:20:30;;;;;;;0.00;0.00;;;15.40;99.90;;;;;;5029248;28;20044;-66
2022/08/07 06:22:56;;;;;;;0.00;0.00;;;15.50;99.90;;;;;;5032062;28;20053;-66
2022/08/07 06:25:22;;;;;;;0.08;0.08;;;15.50;99.90;;;;;;5028649;28;20047;-66
2022/08/07 06:27:47;;;;;;;0.10;0.10;;;15.60;99.90;;;;;;5028803;28;20053;-66
2022/08/07 06:30:13;;;;;;;0.10;0.10;;;15.70;99.90;;;;;;5027588;28;20069;-66
2022/08/07 06:32:39;;;;;;;0.08;0.08;;;15.70;99.90;;;;;;5043450;28;20045;-66
2022/08/07 06:35:05;;;;;;;0.03;0.03;;;15.70;99.90;;;;;;5038911;28;20060;-66
2022/08/07 06:37:30;;;;;;;0.10;0.10;;;15.80;99.90;;;;;;5039246;28;20039;-66
2022/08/07 06:39:56;;;;;;;0.10;0.10;;;15.90;99.90;;;;;;5046603;28;20075;-66
2022/08/07 06:42:36;;;;;;;0.38;0.30;;;15.90;99.90;;;;;;5038712;28;20034;-66
2022/08/07 06:45:04;;;;;;;0.10;0.10;;;16.00;99.90;;;;;;5039710;28;20098;-66
2022/08/07 06:47:30;;;;;;;0.13;0.13;;;16.00;99.90;;;;;;5044963;28;20048;-65
2022/08/07 06:49:56;;;;;;;0.00;0.00;;;16.10;99.90;;;;;;5029626;28;20053;-66
2022/08/07 06:52:23;;;;;;;0.00;0.00;;;16.20;99.90;;;;;;5029138;28;20522;-66
2022/08/07 06:54:51;;;;;;;0.17;0.17;;;16.30;99.90;;;;;;5027998;28;20477;-66
2022/08/07 06:57:18;;;;;;;0.17;0.17;;;16.30;99.90;;;;;;5034751;28;20044;-66
2022/08/07 06:59:44;;;;;;;0.45;0.45;;;16.40;99.90;;;;;;5043467;28;20053;-66
2022/08/07 07:02:21;;;;;;;0.13;0.13;;;16.50;99.90;;;;;;5035498;28;20160;-67
2022/08/07 07:04:47;;;;;;;0.25;0.25;;;16.50;99.90;;;;;;5027801;28;20049;-66
2022/08/07 07:07:14;;;;;;;1.52;0.68;;;16.50;99.90;;;;;;5032515;28;20040;-66
2022/08/07 07:09:47;;;;;;;0.10;0.10;;;16.60;99.90;;;;;;5029922;28;20047;-66
2022/08/07 07:12:21;;;;;;;;;;;16.70;99.90;;;;;;5033250;28;20050;-66
2022/08/07 07:15:13;;;;;;;0.10;0.10;;;16.70;99.90;;;;;;5027979;28;19921;-66
2022/08/07 07:17:46;;;;;;;0.10;0.10;;;16.80;99.90;;;;;;5028333;28;20049;-66
2022/08/07 07:20:17;;;;;;;0.10;0.10;;;16.90;99.90;;;;;;5047626;28;20055;-66
2022/08/07 07:22:43;;;;;;;0.45;0.45;;;16.90;99.90;;;;;;5035044;28;20045;-66
2022/08/07 07:25:11;;;;;;;0.98;0.40;;;16.90;99.90;;;;;;5027638;28;20052;-66
2022/08/07 07:27:43;;;;;;;0.10;0.10;;;17.00;99.90;;;;;;5027128;28;20058;-66
2022/08/07 07:30:11;;;;;;;0.10;0.10;;;17.10;99.90;;;;;;5038300;28;20546;-66
2022/08/07 07:32:39;;;;;;;0.10;0.10;;;17.10;99.90;;;;;;5042855;28;20420;-66
2022/08/07 07:35:07;;;;;;;0.05;0.05;;;17.20;99.90;;;;;;5046355;28;20112;-66
2022/08/07 07:37:35;;;;;;;0.55;0.40;;;17.20;99.90;;;;;;5039036;28;20072;-66
2022/08/07 07:40:05;;;;;;;0.05;0.05;;;17.30;99.90;;;;;;5049644;28;20080;-67
2022/08/07 07:42:32;;;;;;;0.10;0.10;;;17.30;99.90;;;;;;5039222;28;20092;-67
2022/08/07 07:45:00;;;;;;;0.10;0.10;;;17.40;99.90;;;;;;5040515;28;20049;-67
2022/08/07 07:47:27;;;;;;;0.15;0.15;;;17.40;99.90;;;;;;5051057;28;20381;-67
2022/08/07 07:49:54;;;;;;;0.05;0.05;;;17.40;99.90;;;;;;5049986;28;20056;-67
2022/08/07 07:52:21;;;;;;;0.20;0.20;;;17.50;99.90;;;;;;5040980;28;20128;-67
2022/08/07 07:54:49;;;;;;;0.10;0.10;;;17.50;99.90;;;;;;5031491;28;20438;-67
2022/08/07 07:57:17;;;;;;;0.17;0.17;;;17.60;99.90;;;;;;5029871;28;20050;-67
2022/08/07 07:59:44;;;;;;;0.10;0.10;;;17.60;99.90;;;;;;5033559;28;20053;-67
2022/08/07 08:02:12;;;;;;;0.10;0.10;;;17.70;99.90;;;;;;5030755;28;20529;-67
2022/08/07 08:04:39;;;;;;;0.30;0.30;;;17.70;99.90;;;;;;5037766;28;20416;-67
2022/08/07 08:07:06;;;;;;;0.10;0.10;;;17.70;99.90;;;;;;5030997;28;20049;-67
2022/08/07 08:09:36;;;;;;;0.10;0.10;;;17.80;99.90;;;;;;5046484;28;20064;-67
2022/08/07 08:12:02;;;;;;;0.00;0.00;;;17.90;99.90;;;;;;5033545;28;20046;-66
2022/08/07 08:14:29;;;;;;;0.10;0.10;;;18.00;99.90;;;;;;5051148;28;20068;-67
2022/08/07 08:16:56;;;;;;;0.10;0.10;;;17.90;99.90;;;;;;5049729;28;20071;-67
2022/08/07 08:19:27;;;;;;;0.10;0.10;;;17.90;99.90;;;;;;5034525;28;20148;-67
2022/08/07 08:27:37;;;;;;;0.00;0.00;;;18.20;99.90;;;;;;5044985;28;20548;-66
2022/08/07 08:30:06;;;;;;;0.55;0.55;;;18.30;99.90;;;;;;5029662;28;20041;-67
2022/08/07 08:32:35;;;;;;;0.10;0.10;;;18.30;99.90;;;;;;5030177;28;20543;-67
2022/08/07 08:35:02;;;;;;;0.00;0.00;;;18.40;99.90;;;;;;5029709;28;20045;-67
2022/08/07 08:37:31;;;;;;;0.10;0.10;;;18.30;99.90;;;;;;5030434;28;20041;-67
2022/08/07 08:39:56;;;;;;;0.10;0.10;;;18.40;99.90;;;;;;5029874;28;20045;-67
2022/08/07 08:43:17;;;;;;;1.35;0.80;;;18.50;99.90;;;;;;5029641;28;20045;-67
2022/08/07 08:46:00;;;;;;;0.10;0.10;;;18.50;99.90;;;;;;5011386;28;20107;-67
2022/08/07 08:48:54;;;;;;;0.17;0.17;;;18.50;99.90;;;;;;5064706;28;20057;-67
2022/08/07 08:51:30;;;;;;;0.40;0.40;;;18.50;99.90;;;;;;5049375;28;20045;-67
2022/08/07 08:54:08;;;;;;;0.00;0.00;;;18.50;99.90;;;;;;5028740;28;20477;-67
2022/08/07 08:56:47;;;;;;;0.00;0.00;;;18.40;99.90;;;;;;5042056;28;20045;-67
2022/08/07 08:59:34;;;;;;;0.43;0.43;;;18.40;99.90;;;;;;5049832;28;20037;-67
2022/08/07 09:02:18;;;;;;;0.03;0.03;;;18.50;99.90;;;;;;5044765;28;20053;-67
2022/08/07 09:04:50;;;;;;;0.20;0.20;;;18.60;99.90;;;;;;5047462;28;20067;-67
2022/08/07 09:07:27;;;;;;;0.20;0.20;;;18.70;99.90;;;;;;5064387;28;20131;-67
2022/08/07 09:10:04;;;;;;;0.05;0.05;;;18.80;99.90;;;;;;5049475;28;20119;-67
2022/08/07 09:12:51;;;;;;;0.00;0.00;;;18.90;99.90;;;;;;5035252;28;20045;-67
2022/08/07 09:15:37;;;;;;;4.30;1.38;;;18.90;99.90;;;;;;5048888;28;20049;-66
2022/08/07 09:18:21;;;;;;;0.10;0.10;;;18.80;99.90;;;;;;5049092;28;20091;-66
2022/08/07 09:21:00;;;;;;;0.52;0.52;;;18.90;99.90;;;;;;5046952;28;20037;-66
2022/08/07 09:23:48;;;;;;;0.10;0.10;;;19.10;99.90;;;;;;5034955;28;20053;-66
2022/08/07 09:26:23;;;;;;;0.00;0.00;;;19.30;99.90;;;;;;5028951;28;20041;-66
2022/08/07 09:28:57;;;;;;;0.45;0.45;;;19.70;99.90;;;;;;5029093;28;20045;-66
2022/08/07 09:31:55;;;;;;;0.10;0.10;;;20.40;99.90;;;;;;5051548;28;20049;-67
2022/08/07 09:34:30;;;;;;;0.08;0.08;;;21.00;99.90;;;;;;5036619;28;20052;-67
2022/08/07 09:37:06;;;;;;;0.25;0.20;;;21.00;99.90;;;;;;5048225;28;20128;-67
2022/08/07 09:40:09;;;;;;;0.15;0.15;;;21.20;99.90;;;;;;5036010;28;20595;-67
2022/08/07 09:42:57;;;;;;;0.10;0.10;;;21.30;99.90;;;;;;5042092;28;20179;-67
2022/08/07 09:46:02;;;;;;;0.00;0.00;;;21.60;99.90;;;;;;5036686;28;20041;-67
2022/08/07 09:48:55;;;;;;;0.10;0.10;;;22.00;99.90;;;;;;5018863;28;20072;-67
2022/08/07 09:51:43;;;;;;;0.00;0.00;;;22.40;99.90;;;;;;5047281;28;21984;-67
2022/08/07 09:54:18;;;;;;;0.70;0.30;;;22.50;99.90;;;;;;5045671;28;20041;-67
2022/08/07 09:57:17;;;;;;;0.00;0.00;;;22.70;99.90;;;;;;5028507;28;20087;-67
2022/08/07 09:59:54;;;;;;;0.00;0.00;;;23.00;99.90;;;;;;5032063;28;20045;-67
2022/08/07 10:03:06;;;;;;;0.25;0.22;;;22.50;99.90;;;;;;5031337;28;20068;-67
2022/08/07 10:05:50;;;;;;;0.00;0.00;;;21.80;99.90;;;;;;5027621;28;20049;-66
2022/08/07 10:08:36;;;;;;;0.22;0.22;;;21.30;99.90;;;;;;5028875;28;20522;-66
2022/08/07 10:11:19;;;;;;;0.00;0.00;;;21.90;99.90;;;;;;5030466;28;20095;-66
2022/08/07 10:14:12;;;;;;;0.00;0.00;;;22.40;99.90;;;;;;5026718;28;20052;-67
2022/08/07 10:17:19;;;;;;;0.00;0.00;;;22.90;99.90;;;;;;5028942;28;20152;-66
2022/08/07 10:20:17;;;;;;;0.10;0.10;;;23.00;99.90;;;;;;5026139;28;20081;-67
2022/08/07 10:23:08;;;;;;;0.05;0.05;;;23.30;99.90;;;;;;5035000;28;20056;-66
2022/08/07 10:25:55;;;;;;;0.10;0.10;;;23.40;99.90;;;;;;5025611;28;20053;-68
2022/08/07 10:29:06;;;;;;;0.00;0.00;;;23.20;99.90;;;;;;5035300;28;20052;-67
2022/08/07 10:32:04;;;;;;;0.10;0.10;;;22.70;99.90;;;;;;5041408;28;20359;-67
2022/08/07 10:34:47;;;;;;;0.85;0.85;;;22.70;99.90;;;;;;5021414;28;20057;-67
2022/08/07 10:37:28;;;;;;;0.00;0.00;;;22.90;99.90;;;;;;5027154;28;20052;-67
2022/08/07 10:40:16;;;;;;;0.00;0.00;;;22.90;99.90;;;;;;5038875;28;20044;-67
2022/08/07 10:43:11;;;;;;;0.03;0.03;;;23.00;99.90;;;;;;5048151;28;20037;-67
2022/08/07 10:45:38;;;;;;;0.00;0.00;;;23.00;99.90;;;;;;5036609;28;20413;-67
2022/08/07 10:48:32;;;;;;;0.00;0.00;;;23.10;99.90;;;;;;5027980;28;20033;-67
2022/08/07 10:51:09;;;;;;;0.00;0.00;;;23.20;99.90;;;;;;5046078;28;20053;-67
2022/08/07 10:54:02;;;;;;;0.10;0.10;;;22.90;99.90;;;;;;5046872;28;20554;-67
2022/08/07 10:56:56;;;;;;;0.00;0.00;;;23.10;99.90;;;;;;5028081;28;20497;-67
2022/08/07 10:59:41;;;;;;;0.00;0.00;;;23.20;99.90;;;;;;5027831;28;20045;-68
2022/08/07 11:02:27;;;;;;;0.00;0.00;;;23.20;99.90;;;;;;5027803;28;20072;-67
2022/08/07 11:05:23;;;;;;;0.00;0.00;;;23.20;99.90;;;;;;5042874;28;20052;-67
2022/08/07 11:08:08;;;;;;;0.08;0.08;;;23.40;99.90;;;;;;5027213;28;20053;-67
2022/08/07 11:10:42;;;;;;;0.00;0.00;;;23.50;99.90;;;;;;5033208;28;20051;-67
2022/08/07 11:13:31;;;;;;;0.13;0.13;;;23.70;99.90;;;;;;5051554;28;20558;-67
2022/08/07 11:16:04;;;;;;;0.00;0.00;;;23.70;98.30;;;;;;5038635;28;20423;-67
2022/08/07 11:18:53;;;;;;;0.08;0.08;;;23.60;98.20;;;;;;5030480;28;20735;-67
2022/08/07 11:21:40;;;;;;;0.00;0.00;;;23.60;97.90;;;;;;5049706;28;20155;-67
2022/08/07 11:24:20;;;;;;;0.45;0.20;;;23.40;97.30;;;;;;5031784;28;20045;-67
2022/08/07 11:27:18;;;;;;;0.60;0.20;;;23.70;97.10;;;;;;5032379;28;20046;-67
2022/08/07 11:30:01;;;;;;;0.00;0.00;;;23.60;97.70;;;;;;5032698;28;20099;-68
2022/08/07 11:32:30;;;;;;;;;;;23.90;97.50;;;;;;5043518;28;20041;-67
2022/08/07 11:34:59;;;;;;;0.00;0.00;;;24.00;98.20;;;;;;5049177;28;19932;-67
2022/08/07 11:37:36;;;;;;;1.17;0.47;;;23.90;97.10;;;;;;5036710;28;20042;-67
2022/08/07 11:40:24;;;;;;;0.00;0.00;;;24.00;97.20;;;;;;5029372;28;20505;-68
2022/08/07 11:43:12;;;;;;;0.00;0.00;;;24.30;97.30;;;;;;5038296;28;20081;-67
2022/08/07 11:46:02;;;;;;;0.10;0.10;;;24.40;96.60;;;;;;5030758;28;20148;-68
2022/08/07 11:48:53;;;;;;;0.00;0.00;;;24.40;97.20;;;;;;5031404;28;20126;-68
2022/08/07 11:51:51;;;;;;;0.20;0.10;;;24.50;95.50;;;;;;5029387;28;20048;-67
2022/08/07 11:54:36;;;;;;;0.00;0.00;;;24.40;95.70;;;;;;5031033;28;20382;-67
2022/08/07 11:57:27;;;;;;;0.00;0.00;;;24.40;95.90;;;;;;5029469;28;20053;-68
2022/08/07 12:00:16;;;;;;;0.00;0.00;;;24.90;96.80;;;;;;5046096;28;20571;-67
2022/08/07 12:03:03;;;;;;;0.00;0.00;;;25.20;96.80;;;;;;5050786;28;20110;-68
2022/08/07 12:05:42;;;;;;;0.00;0.00;;;25.30;95.80;;;;;;5050745;28;20045;-67
2022/08/07 12:08:17;;;;;;;0.00;0.00;;;25.00;95.70;;;;;;5037607;28;20285;-67
2022/08/07 12:10:57;;;;;;;0.00;0.00;;;25.20;96.10;;;;;;5030257;28;20061;-68
2022/08/07 12:13:29;;;;;;;0.20;0.10;;;25.30;96.20;;;;;;5046004;28;20049;-68
2022/08/07 12:16:04;;;;;;;0.00;0.00;;;25.70;94.60;;;;;;5031392;28;20195;-68
2022/08/07 12:18:40;;;;;;;0.10;0.10;;;25.60;95.70;;;;;;5048521;28;20052;-68
2022/08/07 12:21:15;;;;;;;0.00;0.00;;;25.40;94.70;;;;;;5047482;28;20052;-68
2022/08/07 12:23:51;;;;;;;0.43;0.43;;;25.40;96.20;;;;;;5030071;28;20179;-68
2022/08/07 12:26:33;;;;;;;0.00;0.00;;;25.70;95.70;;;;;;5030163;28;20393;-68
2022/08/07 12:29:11;;;;;;;0.00;0.00;;;26.10;96.50;;;;;;5030020;28;20116;-67
2022/08/07 12:31:57;;;;;;;0.03;0.03;;;26.40;95.80;;;;;;5040365;28;20041;-68
2022/08/07 12:34:25;;;;;;;0.00;0.00;;;26.20;95.80;;;;;;5038598;28;20520;-68
2022/08/07 12:36:52;;;;;;;0.00;0.00;;;25.40;95.50;;;;;;5030840;28;20080;-68
2022/08/07 12:39:20;;;;;;;0.15;0.15;;;25.00;96.40;;;;;;5028547;28;20068;-68
2022/08/07 12:41:47;;;;;;;0.00;0.00;;;24.40;96.10;;;;;;5051657;28;20539;-68
2022/08/07 12:44:14;;;;;;;0.32;0.22;;;24.10;97.00;;;;;;5029071;28;20049;-67
2022/08/07 12:46:43;;;;;;;0.00;0.00;;;24.10;96.70;;;;;;5029615;28;20084;-68
2022/08/07 12:49:47;;;;;;;0.00;0.00;;;23.90;98.30;;;;;;5030515;28;20409;-68
2022/08/07 12:52:24;;;;;;;0.20;0.20;;;23.70;98.40;;;;;;5037812;28;20117;-67
2022/08/07 12:55:12;;;;;;;0.10;0.10;;;23.50;99.50;;;;;;5045570;28;20041;-67
2022/08/07 12:57:39;;;;;;;0.10;0.10;;;23.60;99.40;;;;;;5030021;28;20122;-67
2022/08/07 13:00:09;;;;;;;0.10;0.10;;;23.60;99.00;;;;;;5030001;28;20493;-67
2022/08/07 13:03:17;;;;;;;0.10;0.10;;;23.40;99.50;;;;;;5029828;28;20041;-67
2022/08/07 13:05:55;;;;;;;0.65;0.20;;;23.30;99.30;;;;;;5047708;28;20048;-68
2022/08/07 13:08:20;;;;;;;0.90;0.32;;;23.50;99.50;;;;;;5044443;28;20071;-67
2022/08/07 13:10:59;;;;;;;0.20;0.03;;;23.90;99.90;;;;;;5028689;28;20057;-68
2022/08/07 13:13:47;;;;;;;0.00;0.00;;;24.80;98.10;;;;;;5037546;28;20041;-68
2022/08/07 13:16:42;;;;;;;0.00;0.00;;;25.30;98.60;;;;;;5040485;28;20045;-69
2022/08/07 13:19:38;;;;;;;0.00;0.00;;;25.30;98.30;;;;;;5036900;28;20045;-69
2022/08/07 13:22:15;;;;;;;0.10;0.10;;;25.70;98.10;;;;;;5037283;28;20067;-68
2022/08/07 13:24:58;;;;;;;0.05;0.05;;;26.10;98.50;;;;;;5034601;28;20037;-69
2022/08/07 13:27:26;;;;;;;;;;;26.30;97.40;;;;;;5036668;28;20103;-69